Time;durP1;ratioP1;P1;durP2;ratioP2;P2;SDS_P1;SDS_P2;PMS_P1;PMS_P2;Temp;Humidity;BMP_temperature;BMP_pressure;BME280_temperature;BME280_humidity;BME280_pressure;Samples;Min_cycle;Max_cycle;Signal;HPM_P1;HPM_P2
2023/03/17 00:00:19;;;;;;;10.02;5.13;;;;;;;10.20;100.00;98762.91;5038163;28;20325;-86
2023/03/17 00:02:48;;;;;;;11.35;4.80;;;;;;;10.25;100.00;98766.00;5037640;28;20407;-86
2023/03/17 00:05:23;;;;;;;12.85;6.30;;;;;;;10.15;100.00;98752.75;5036691;28;20367;-87
2023/03/17 00:07:52;;;;;;;9.82;4.90;;;;;;;10.27;100.00;98770.22;5031917;28;20050;-86
2023/03/17 00:10:23;;;;;;;11.23;4.93;;;;;;;10.27;100.00;98765.00;5055218;28;20403;-86
2023/03/17 00:12:52;;;;;;;11.32;5.43;;;;;;;10.03;100.00;98730.84;5040589;28;20049;-86
2023/03/17 00:15:20;;;;;;;12.13;6.50;;;;;;;10.15;100.00;98759.75;5034032;28;20061;-87
2023/03/17 00:17:48;;;;;;;10.27;5.30;;;;;;;9.84;100.00;98710.38;5049832;28;20045;-86
2023/03/17 00:20:27;;;;;;;10.90;5.88;;;;;;;9.92;100.00;98730.75;5027442;28;20041;-86
2023/03/17 00:22:58;;;;;;;11.32;5.55;;;;;;;10.15;100.00;98755.34;5034592;28;20040;-86
2023/03/17 00:25:27;;;;;;;10.95;5.60;;;;;;;10.34;100.00;98775.91;5030724;28;20049;-86
2023/03/17 00:27:57;;;;;;;10.65;5.47;;;;;;;10.15;100.00;98749.28;5035782;28;20046;-86
2023/03/17 00:30:25;;;;;;;11.40;6.05;;;;;;;10.09;100.00;98747.91;5054637;28;20040;-86
2023/03/17 00:32:57;;;;;;;14.20;7.22;;;;;;;10.20;100.00;98765.50;5054338;28;20376;-85
2023/03/17 00:35:28;;;;;;;13.82;7.65;;;;;;;10.35;100.00;98777.56;5031882;28;20537;-86
2023/03/17 00:37:56;;;;;;;12.57;5.55;;;;;;;10.31;100.00;98770.88;5033354;28;20431;-87
2023/03/17 00:40:28;;;;;;;12.82;5.90;;;;;;;10.20;100.00;98742.81;5027071;28;20517;-87
2023/03/17 00:42:56;;;;;;;10.02;4.28;;;;;;;10.28;100.00;98763.19;5026607;28;20107;-87
2023/03/17 00:45:25;;;;;;;9.30;4.38;;;;;;;10.16;100.00;98757.00;5022363;28;20057;-87
2023/03/17 00:47:55;;;;;;;11.52;4.95;;;;;;;10.32;100.00;98780.38;5035073;28;20538;-87
2023/03/17 00:50:25;;;;;;;10.90;4.25;;;;;;;10.38;100.00;98779.16;5019647;28;20049;-88
2023/03/17 00:52:55;;;;;;;9.93;4.88;;;;;;;10.29;100.00;98759.66;5025691;28;20078;-90
2023/03/17 00:55:23;;;;;;;12.45;3.90;;;;;;;10.13;100.00;98744.16;5035568;28;20766;-89
2023/03/17 00:57:50;;;;;;;10.60;3.90;;;;;;;10.23;100.00;98763.53;5016523;28;20081;-90
2023/03/17 01:00:20;;;;;;;9.27;3.97;;;;;;;10.33;100.00;98776.84;5035298;28;20042;-89
2023/03/17 01:02:48;;;;;;;9.55;3.42;;;;;;;10.12;100.00;98746.88;5016519;28;20054;-88
2023/03/17 01:05:15;;;;;;;8.02;3.00;;;;;;;10.33;100.00;98776.84;5020596;28;20054;-88
2023/03/17 01:07:46;;;;;;;10.13;2.75;;;;;;;10.26;100.00;98760.69;5032381;28;20060;-88
2023/03/17 01:10:16;;;;;;;6.35;2.30;;;;;;;10.39;100.00;98776.44;5047515;28;20041;-88
2023/03/17 01:12:44;;;;;;;6.57;2.30;;;;;;;10.26;100.00;98757.25;5031985;28;20057;-89
2023/03/17 01:15:13;;;;;;;7.30;2.38;;;;;;;10.35;100.00;98782.81;5044034;28;20478;-89
2023/03/17 01:17:40;;;;;;;7.90;2.10;;;;;;;9.81;100.00;98717.53;5034482;28;20057;-87
2023/03/17 01:20:15;;;;;;;6.70;2.10;;;;;;;10.24;100.00;98782.66;5033813;28;20049;-88
2023/03/17 01:22:42;;;;;;;5.70;1.85;;;;;;;10.08;100.00;98761.94;5032729;28;20045;-88
2023/03/17 01:25:10;;;;;;;4.93;1.60;;;;;;;9.91;100.00;98725.63;5032870;28;20463;-89
2023/03/17 01:27:38;;;;;;;6.78;1.73;;;;;;;10.09;100.00;98763.59;5034774;28;20056;-88
2023/03/17 01:30:06;;;;;;;4.85;1.50;;;;;;;10.21;100.00;98788.91;5048494;28;20465;-87
2023/03/17 01:32:33;;;;;;;5.43;2.20;;;;;;;10.02;100.00;98767.56;5036129;28;20102;-87
2023/03/17 01:35:00;;;;;;;7.82;1.83;;;;;;;9.92;100.00;98749.06;5020439;28;20053;-88
2023/03/17 01:37:27;;;;;;;8.18;2.05;;;;;;;10.02;100.00;98764.94;5023387;28;20056;-87
2023/03/17 01:39:54;;;;;;;3.88;1.48;;;;;;;10.00;100.00;98757.19;5051098;28;20052;-87
2023/03/17 01:42:20;;;;;;;4.25;1.40;;;;;;;9.93;100.00;98744.66;5035209;28;20045;-86
2023/03/17 01:45:04;;;;;;;5.97;1.48;;;;;;;10.20;100.00;98771.56;5040513;28;20442;-87
2023/03/17 01:47:31;;;;;;;;;;;;;;;10.29;100.00;98777.97;5016154;28;20045;-88
2023/03/17 01:50:05;;;;;;;6.97;1.70;;;;;;;9.75;100.00;98707.50;5034165;28;19924;-88
2023/03/17 01:52:34;;;;;;;7.35;1.58;;;;;;;9.99;100.00;98760.78;5014530;28;20502;-88
2023/03/17 01:55:06;;;;;;;5.25;1.52;;;;;;;9.89;100.00;98757.91;5032510;28;20099;-87
2023/03/17 01:57:40;;;;;;;5.65;1.65;;;;;;;10.02;100.00;98764.94;5033252;28;20060;-87
2023/03/17 02:00:15;;;;;;;4.57;1.48;;;;;;;9.89;100.00;98754.47;5014894;28;20051;-87
2023/03/17 02:02:45;;;;;;;7.60;1.80;;;;;;;10.05;100.00;98778.66;5029290;28;20473;-88
2023/03/17 02:05:16;;;;;;;8.88;2.45;;;;;;;10.00;100.00;98782.50;5048305;28;20044;-87
2023/03/17 02:07:46;;;;;;;7.10;2.00;;;;;;;9.64;100.00;98716.91;5029834;28;20113;-88
2023/03/17 02:10:16;;;;;;;6.88;1.80;;;;;;;9.79;100.00;98741.19;5024029;28;20155;-88
2023/03/17 02:12:44;;;;;;;6.43;1.95;;;;;;;9.80;100.00;98744.63;5031008;28;20064;-88
2023/03/17 02:15:11;;;;;;;5.30;1.60;;;;;;;9.70;100.00;98723.50;5052305;28;20041;-88
2023/03/17 02:17:38;;;;;;;3.58;1.50;;;;;;;10.05;100.00;98783.06;5034145;28;20040;-88
2023/03/17 02:20:17;;;;;;;6.10;1.92;;;;;;;10.05;100.00;98785.66;5034654;28;20044;-88
2023/03/17 02:22:48;;;;;;;5.70;1.65;;;;;;;9.84;100.00;98785.31;5029257;28;20103;-86
2023/03/17 02:25:16;;;;;;;7.90;1.90;;;;;;;9.96;100.00;98792.34;5027847;28;20072;-87
2023/03/17 02:27:47;;;;;;;6.18;1.80;;;;;;;9.74;100.00;98765.94;5014219;28;20061;-86
2023/03/17 02:30:18;;;;;;;6.47;1.75;;;;;;;9.92;100.00;98784.81;5034040;28;20045;-88
2023/03/17 02:32:46;;;;;;;4.00;1.50;;;;;;;9.78;100.00;98746.53;5052616;28;20399;-87
2023/03/17 02:35:14;;;;;;;11.05;3.05;;;;;;;9.59;100.00;98729.41;5033955;28;20438;-88
2023/03/17 02:37:42;;;;;;;8.70;2.47;;;;;;;9.39;100.00;98712.44;5032912;28;20057;-87
2023/03/17 02:40:10;;;;;;;8.18;2.00;;;;;;;9.98;100.00;98772.16;5037433;28;20053;-87
2023/03/17 02:42:38;;;;;;;5.68;1.98;;;;;;;9.85;100.00;98768.69;5033840;28;20053;-88
2023/03/17 02:45:07;;;;;;;5.38;1.92;;;;;;;9.82;100.00;98751.44;5019943;28;20413;-87
2023/03/17 02:47:35;;;;;;;6.90;1.88;;;;;;;9.87;100.00;98758.97;5031281;28;20114;-88
2023/03/17 02:50:03;;;;;;;6.18;2.15;;;;;;;9.68;100.00;98746.28;5019243;28;20049;-88
2023/03/17 02:52:30;;;;;;;8.75;1.88;;;;;;;9.29;100.00;98711.34;5034758;28;20048;-88
2023/03/17 02:54:57;;;;;;;6.90;2.53;;;;;;;9.67;100.00;98727.16;5043290;28;20053;-88
2023/03/17 02:57:24;;;;;;;6.72;2.30;;;;;;;9.51;100.00;98736.94;5034158;28;20072;-88
2023/03/17 02:59:51;;;;;;;6.28;2.00;;;;;;;9.56;100.00;98728.78;5033368;28;20067;-87
2023/03/17 03:02:17;;;;;;;8.10;2.08;;;;;;;9.69;100.00;98766.25;5034254;28;20041;-88
2023/03/17 03:04:45;;;;;;;6.90;2.08;;;;;;;9.86;100.00;98776.44;5050947;28;20538;-87
2023/03/17 03:07:11;;;;;;;8.00;1.92;;;;;;;9.62;100.00;98744.06;5050616;28;20111;-88
2023/03/17 03:09:38;;;;;;;6.70;1.75;;;;;;;9.87;100.00;98778.09;5031883;28;20049;-87
2023/03/17 03:12:08;;;;;;;5.00;1.70;;;;;;;9.60;100.00;98754.63;5034817;28;21121;-87
2023/03/17 03:14:35;;;;;;;5.18;1.70;;;;;;;9.81;100.00;98773.28;5027960;28;20132;-87
2023/03/17 03:17:03;;;;;;;7.43;1.92;;;;;;;9.93;100.00;98802.16;5024708;28;20053;-87
2023/03/17 03:19:30;;;;;;;8.68;2.35;;;;;;;9.69;100.00;98761.03;5027857;28;20045;-87
2023/03/17 03:21:56;;;;;;;3.50;1.20;;;;;;;9.60;100.00;98736.34;5026772;28;20702;-87
2023/03/17 03:24:23;;;;;;;5.63;1.77;;;;;;;9.81;100.00;98778.53;5029760;28;20067;-87
2023/03/17 03:26:50;;;;;;;3.53;1.30;;;;;;;9.73;100.00;98772.94;5034347;28;20052;-87
2023/03/17 03:29:17;;;;;;;3.92;1.40;;;;;;;9.50;100.00;98735.25;5031723;28;20053;-87
2023/03/17 03:31:44;;;;;;;3.55;1.40;;;;;;;9.48;100.00;98740.56;5034189;28;20048;-88
2023/03/17 03:34:10;;;;;;;3.25;1.33;;;;;;;9.58;100.00;98751.28;5028749;28;20391;-87
2023/03/17 03:36:37;;;;;;;4.57;1.50;;;;;;;9.50;100.00;98746.53;5028329;28;20045;-88
2023/03/17 03:39:04;;;;;;;5.00;1.63;;;;;;;9.59;100.00;98768.63;5024187;28;20045;-87
2023/03/17 03:41:31;;;;;;;3.58;1.40;;;;;;;9.45;100.00;98742.53;5030410;28;20109;-87
2023/03/17 03:43:57;;;;;;;3.03;1.17;;;;;;;9.66;100.00;98782.94;5024817;28;20045;-87
2023/03/17 03:46:25;;;;;;;4.03;1.60;;;;;;;9.32;100.00;98738.13;5038643;28;20048;-88
2023/03/17 03:48:53;;;;;;;2.90;1.27;;;;;;;9.48;100.00;98771.91;5020971;28;20494;-88
2023/03/17 03:51:20;;;;;;;3.17;1.27;;;;;;;9.32;100.00;98758.19;5033757;28;20049;-89
2023/03/17 03:53:49;;;;;;;5.30;1.30;;;;;;;9.37;100.00;98756.13;5020668;28;20475;-87
2023/03/17 03:56:16;;;;;;;4.80;1.20;;;;;;;9.20;100.00;98723.22;5033728;28;20053;-87
2023/03/17 03:58:43;;;;;;;4.25;1.35;;;;;;;9.35;100.00;98744.94;5027835;28;20104;-87
2023/03/17 04:01:10;;;;;;;4.82;1.45;;;;;;;9.31;100.00;98754.75;5015205;28;20053;-87
2023/03/17 04:03:37;;;;;;;4.28;1.77;;;;;;;9.48;100.00;98766.69;5047491;28;20049;-86
2023/03/17 04:06:04;;;;;;;4.25;1.50;;;;;;;9.45;100.00;98782.56;5023821;28;20053;-90
2023/03/17 04:08:32;;;;;;;5.32;1.67;;;;;;;9.55;100.00;98795.88;5035888;28;20045;-89
2023/03/17 04:10:58;;;;;;;4.20;1.58;;;;;;;9.44;100.00;98761.78;5032164;28;20053;-88
2023/03/17 04:13:25;;;;;;;5.43;1.67;;;;;;;9.41;100.00;98757.59;5050130;28;20048;-88
2023/03/17 04:15:52;;;;;;;8.20;1.63;;;;;;;9.18;100.00;98713.84;5027498;28;20061;-88
2023/03/17 04:18:19;;;;;;;2.75;1.30;;;;;;;9.74;100.00;98803.38;5018675;28;20095;-88
2023/03/17 04:20:46;;;;;;;3.53;1.30;;;;;;;9.29;100.00;98724.41;5033269;28;20068;-89
2023/03/17 04:23:12;;;;;;;4.22;1.60;;;;;;;9.63;100.00;98777.09;5049634;28;20503;-88
2023/03/17 04:25:39;;;;;;;4.22;1.40;;;;;;;9.77;100.00;98805.78;5030774;28;20050;-88
2023/03/17 04:28:07;;;;;;;3.30;1.58;;;;;;;9.27;100.00;98732.34;5049610;28;20438;-89
2023/03/17 04:30:34;;;;;;;3.78;1.42;;;;;;;9.75;100.00;98801.59;5036772;28;20540;-87
2023/03/17 04:33:01;;;;;;;3.92;1.40;;;;;;;9.35;100.00;98747.53;5035868;28;20053;-90
2023/03/17 04:35:28;;;;;;;5.43;1.63;;;;;;;9.67;100.00;98787.25;5036719;28;20053;-88
2023/03/17 04:37:55;;;;;;;2.63;1.17;;;;;;;9.33;100.00;98749.41;5021791;28;20411;-87
2023/03/17 04:40:22;;;;;;;4.25;1.75;;;;;;;9.49;100.00;98776.22;5036589;28;20059;-87
2023/03/17 04:42:49;;;;;;;3.85;1.60;;;;;;;9.57;100.00;98782.72;5023554;28;20056;-88
2023/03/17 04:45:16;;;;;;;4.05;1.45;;;;;;;9.44;100.00;98775.69;5022139;28;20485;-88
2023/03/17 04:47:44;;;;;;;2.40;1.17;;;;;;;9.71;100.00;98821.88;5034864;28;20049;-88
2023/03/17 04:50:13;;;;;;;4.00;1.60;;;;;;;9.28;100.00;98748.88;5054005;28;20053;-87
2023/03/17 04:52:39;;;;;;;2.88;1.35;;;;;;;9.63;100.00;98787.53;5035811;28;20045;-87
2023/03/17 04:55:07;;;;;;;5.00;1.58;;;;;;;9.72;100.00;98815.72;5046841;28;20053;-87
2023/03/17 04:57:35;;;;;;;5.78;1.85;;;;;;;9.26;100.00;98745.50;5043229;28;20049;-88
2023/03/17 05:00:04;;;;;;;4.93;1.75;;;;;;;9.33;100.00;98757.25;5053114;28;20045;-88
2023/03/17 05:02:32;;;;;;;4.93;1.90;;;;;;;9.34;100.00;98752.84;5036532;28;20049;-88
2023/03/17 05:04:58;;;;;;;5.65;1.77;;;;;;;9.61;100.00;98805.09;5034846;28;20051;-88
2023/03/17 05:07:25;;;;;;;5.25;1.80;;;;;;;9.64;100.00;98813.56;5052622;28;20489;-87
2023/03/17 05:09:52;;;;;;;4.15;1.70;;;;;;;9.42;100.00;98782.78;5024011;28;20123;-86
2023/03/17 05:12:19;;;;;;;4.53;1.80;;;;;;;9.56;100.00;98797.56;5029781;28;20494;-87
2023/03/17 05:14:46;;;;;;;4.72;1.63;;;;;;;9.46;100.00;98788.66;5044169;28;20045;-87
2023/03/17 05:17:13;;;;;;;3.97;1.52;;;;;;;9.75;100.00;98835.56;5050824;28;20053;-87
2023/03/17 05:19:40;;;;;;;3.92;1.40;;;;;;;9.59;100.00;98818.25;5031535;28;20067;-87
2023/03/17 05:22:06;;;;;;;4.15;1.45;;;;;;;9.71;100.00;98823.66;5053814;28;20041;-87
2023/03/17 05:24:33;;;;;;;3.13;1.25;;;;;;;9.43;100.00;98781.00;5035593;28;20052;-87
2023/03/17 05:27:00;;;;;;;2.55;1.20;;;;;;;9.54;100.00;98803.81;5026494;28;20049;-88
2023/03/17 05:29:27;;;;;;;3.72;1.33;;;;;;;9.59;100.00;98818.25;5027329;28;20045;-88
2023/03/17 05:31:53;;;;;;;2.03;1.13;;;;;;;9.36;100.00;98782.31;5041328;28;20045;-88
2023/03/17 05:34:20;;;;;;;3.03;1.20;;;;;;;9.49;100.00;98799.72;5029297;28;20045;-88
2023/03/17 05:36:47;;;;;;;2.83;1.30;;;;;;;9.59;100.00;98820.88;5038849;28;20053;-87
2023/03/17 05:39:15;;;;;;;3.00;1.33;;;;;;;9.30;100.00;98789.63;5034963;28;20805;-87
2023/03/17 05:41:42;;;;;;;3.53;1.20;;;;;;;9.43;100.00;98799.28;5035071;28;20053;-88
2023/03/17 05:44:09;;;;;;;4.90;1.60;;;;;;;9.30;100.00;98778.34;5051780;28;20064;-88
2023/03/17 05:46:36;;;;;;;2.75;1.23;;;;;;;9.49;100.00;98802.34;5052974;28;20051;-88
2023/03/17 05:49:03;;;;;;;3.33;1.38;;;;;;;9.42;100.00;98792.38;5050926;28;20059;-89
2023/03/17 05:51:30;;;;;;;4.22;1.30;;;;;;;9.28;100.00;98801.94;5051630;28;20056;-89
2023/03/17 05:53:57;;;;;;;3.05;1.77;;;;;;;9.72;100.00;98865.38;5027747;28;20120;-89
2023/03/17 05:56:25;;;;;;;3.83;1.42;;;;;;;9.52;100.00;98837.88;5016037;28;20053;-88
2023/03/17 05:58:52;;;;;;;3.20;1.30;;;;;;;9.31;100.00;98803.50;5014965;28;20411;-88
2023/03/17 06:01:19;;;;;;;4.47;1.63;;;;;;;9.10;100.00;98782.19;5014822;28;20053;-89
2023/03/17 06:03:46;;;;;;;2.65;1.40;;;;;;;9.51;100.00;98838.81;5018793;28;20045;-88
2023/03/17 06:06:13;;;;;;;2.78;1.40;;;;;;;9.41;100.00;98849.00;5034367;28;20087;-87
2023/03/17 06:08:40;;;;;;;3.78;1.20;;;;;;;9.37;100.00;98831.03;5017990;28;20041;-91
2023/03/17 06:11:07;;;;;;;5.57;1.33;;;;;;;9.13;100.00;98816.78;5027271;28;20049;-89
2023/03/17 06:13:34;;;;;;;2.55;1.10;;;;;;;9.24;100.00;98829.19;5024986;28;20063;-89
2023/03/17 06:16:01;;;;;;;3.45;1.45;;;;;;;9.61;100.00;98892.16;5022487;28;20055;-87
2023/03/17 06:18:28;;;;;;;2.00;1.10;;;;;;;9.28;100.00;98843.72;5048775;28;20053;-88
2023/03/17 06:20:55;;;;;;;3.28;1.42;;;;;;;9.37;100.00;98868.44;5045764;28;20151;-87
2023/03/17 06:23:22;;;;;;;3.03;1.27;;;;;;;9.44;100.00;98858.44;5022320;28;20045;-88
2023/03/17 06:25:49;;;;;;;2.95;1.15;;;;;;;9.49;100.00;98882.47;5034933;28;20151;-87
2023/03/17 06:28:17;;;;;;;1.92;1.08;;;;;;;9.36;100.00;98864.13;5029714;28;20060;-88
2023/03/17 06:30:44;;;;;;;3.05;1.10;;;;;;;9.09;100.00;98820.50;5018773;28;20446;-89
2023/03/17 06:33:11;;;;;;;2.92;1.20;;;;;;;9.34;100.00;98858.16;5047277;28;20041;-88
2023/03/17 06:35:39;;;;;;;4.82;1.40;;;;;;;9.47;100.00;98871.28;5033487;28;20095;-88
2023/03/17 06:38:06;;;;;;;3.17;1.13;;;;;;;9.27;100.00;98849.03;5049519;28;20045;-88
2023/03/17 06:40:33;;;;;;;2.55;1.13;;;;;;;9.35;100.00;98859.84;5034000;28;20049;-90
2023/03/17 06:43:00;;;;;;;3.05;1.20;;;;;;;9.27;100.00;98849.03;5022669;28;20050;-92
2023/03/17 06:45:27;;;;;;;2.95;1.23;;;;;;;9.72;100.00;98911.53;5035775;28;20056;-92
2023/03/17 06:47:55;;;;;;;2.25;1.10;;;;;;;9.44;100.00;98874.94;5049960;28;20074;-92
2023/03/17 06:50:22;;;;;;;2.65;1.30;;;;;;;9.49;100.00;98890.31;5029149;28;20807;-91
2023/03/17 06:52:49;;;;;;;2.40;1.20;;;;;;;9.26;100.00;98863.00;5033993;28;20544;-90
2023/03/17 06:55:16;;;;;;;3.55;1.15;;;;;;;9.61;100.00;98926.13;5033021;28;20384;-91
2023/03/17 06:57:43;;;;;;;2.13;1.10;;;;;;;9.11;100.00;98843.91;5030463;28;20053;-90
2023/03/17 07:00:12;;;;;;;3.38;1.30;;;;;;;9.46;100.00;98900.97;5049523;28;20048;-91
2023/03/17 07:02:40;;;;;;;3.67;1.30;;;;;;;9.46;100.00;98891.34;5033050;28;20041;-90
2023/03/17 07:05:07;;;;;;;3.17;1.13;;;;;;;9.72;100.00;98933.31;5032712;28;20514;-88
2023/03/17 07:07:34;;;;;;;2.40;1.17;;;;;;;9.26;100.00;98863.88;5052176;28;20048;-90
2023/03/17 07:10:02;;;;;;;2.25;1.20;;;;;;;9.67;100.00;98922.31;5034257;28;20049;-88
2023/03/17 07:12:29;;;;;;;2.45;1.20;;;;;;;9.53;100.00;98899.66;5035648;28;20045;-88
2023/03/17 07:14:56;;;;;;;1.80;1.20;;;;;;;9.56;100.00;98915.16;5051999;28;20056;-88
2023/03/17 07:17:24;;;;;;;2.05;0.90;;;;;;;9.79;100.00;98946.81;5031357;28;20052;-88
2023/03/17 07:19:51;;;;;;;2.15;1.08;;;;;;;9.46;100.00;98900.97;5030329;28;20487;-89
2023/03/17 07:22:18;;;;;;;2.10;0.95;;;;;;;9.50;100.00;98905.88;5028921;28;20044;-90
2023/03/17 07:24:45;;;;;;;1.20;0.90;;;;;;;9.77;100.00;98941.69;5035680;28;20384;-90
2023/03/17 07:27:13;;;;;;;1.85;1.00;;;;;;;9.82;100.00;98952.69;5025988;28;20108;-90
2023/03/17 07:29:40;;;;;;;2.45;1.15;;;;;;;9.44;100.00;98901.06;5031609;28;20045;-89
2023/03/17 07:32:08;;;;;;;2.42;0.98;;;;;;;9.58;100.00;98917.63;5034616;28;20053;-90
2023/03/17 07:34:35;;;;;;;3.55;1.00;;;;;;;9.64;100.00;98925.09;5032574;28;20144;-89
2023/03/17 07:37:02;;;;;;;2.90;1.15;;;;;;;9.63;100.00;98928.63;5051811;28;20057;-89
2023/03/17 07:39:29;;;;;;;1.15;0.90;;;;;;;9.64;100.00;98909.44;5030217;28;20056;-89
2023/03/17 07:41:55;;;;;;;1.63;0.90;;;;;;;9.80;100.00;98938.88;5032294;28;20045;-88
2023/03/17 07:44:23;;;;;;;3.20;0.93;;;;;;;9.66;100.00;98903.16;5025069;28;20056;-88
2023/03/17 07:46:51;;;;;;;3.92;1.20;;;;;;;10.00;100.00;98958.53;5035203;28;20472;-90
2023/03/17 07:49:18;;;;;;;1.83;1.00;;;;;;;10.00;100.00;98935.00;5023462;28;20045;-89
2023/03/17 07:52:05;;;;;;;2.47;1.25;;;;;;;10.06;100.00;98929.38;5031780;28;20042;-90
2023/03/17 07:54:33;;;;;;;1.60;1.00;;;;;;;9.98;100.00;98915.13;5027095;28;20053;-89
2023/03/17 07:56:59;;;;;;;2.33;0.93;;;;;;;10.24;100.00;98948.28;5017497;28;20053;-89
2023/03/17 07:59:26;;;;;;;2.17;1.00;;;;;;;10.33;100.00;98951.28;5025009;28;20046;-90
2023/03/17 08:01:53;;;;;;;2.05;0.93;;;;;;;10.41;100.00;98952.47;5019086;28;20057;-88
2023/03/17 08:04:20;;;;;;;4.03;1.10;;;;;;;10.42;100.00;98948.88;5026333;28;20127;-89
2023/03/17 08:06:47;;;;;;;2.58;1.17;;;;;;;10.40;100.00;98924.59;5054365;28;20049;-89
2023/03/17 08:09:14;;;;;;;2.35;1.10;;;;;;;10.50;100.00;98958.00;5031041;28;20057;-89
2023/03/17 08:11:41;;;;;;;4.38;1.10;;;;;;;10.29;100.00;98937.53;5056746;28;20122;-89
2023/03/17 08:14:08;;;;;;;2.45;1.08;;;;;;;10.54;100.00;98954.28;5032752;28;20053;-89
2023/03/17 08:16:35;;;;;;;2.05;1.00;;;;;;;10.38;100.00;98949.19;5049851;28;20072;-90
2023/03/17 08:19:03;;;;;;;4.10;1.35;;;;;;;10.88;100.00;99017.47;5043754;28;20053;-90
2023/03/17 08:21:30;;;;;;;2.80;1.10;;;;;;;10.41;100.00;98951.59;5035709;28;20046;-90
2023/03/17 08:23:56;;;;;;;2.17;1.10;;;;;;;10.41;100.00;98956.81;5018880;28;20076;-89
2023/03/17 08:26:24;;;;;;;4.20;1.23;;;;;;;10.31;100.00;98940.03;5018888;28;20054;-89
2023/03/17 08:28:51;;;;;;;2.28;1.15;;;;;;;10.49;100.00;98959.78;5049396;28;20049;-89
2023/03/17 08:31:21;;;;;;;3.83;0.95;;;;;;;10.82;100.00;99008.25;5035356;28;20498;-90
2023/03/17 08:33:51;;;;;;;3.03;1.20;;;;;;;10.88;100.00;98996.53;5018463;28;20099;-89
2023/03/17 08:36:19;;;;;;;2.97;1.27;;;;;;;10.93;100.00;98994.44;5024924;28;20060;-90
2023/03/17 08:38:46;;;;;;;2.95;1.20;;;;;;;10.93;100.00;98971.72;5030502;28;20060;-88
2023/03/17 08:41:17;;;;;;;1.95;1.00;;;;;;;11.27;100.00;99021.81;5055639;28;20202;-89
2023/03/17 08:43:45;;;;;;;3.25;1.20;;;;;;;11.18;100.00;99010.19;5047889;28;20053;-90
2023/03/17 08:46:15;;;;;;;4.85;1.20;;;;;;;11.27;100.00;99019.19;5019900;28;20056;-88
2023/03/17 08:48:44;;;;;;;2.58;1.20;;;;;;;11.27;100.00;99029.66;5042451;28;20081;-88
2023/03/17 08:51:11;;;;;;;3.55;1.23;;;;;;;10.82;100.00;98961.97;5025160;28;20412;-89
2023/03/17 08:53:39;;;;;;;1.95;0.98;;;;;;;11.36;100.00;99030.84;5047754;28;20049;-89
2023/03/17 08:56:07;;;;;;;3.20;0.90;;;;;;;11.14;100.00;98981.69;5026361;28;20392;-88
2023/03/17 08:58:36;;;;;;;1.48;0.90;;;;;;;11.13;100.00;98985.25;5027405;28;20045;-89
2023/03/17 09:01:03;;;;;;;2.08;1.00;;;;;;;11.14;100.00;98985.13;5017541;28;20057;-88
2023/03/17 09:03:32;;;;;;;1.77;0.90;;;;;;;11.23;100.00;98990.72;5017178;28;20045;-88
2023/03/17 09:05:59;;;;;;;2.70;1.08;;;;;;;11.29;100.00;99006.81;5038936;28;20046;-88
2023/03/17 09:08:26;;;;;;;3.63;1.08;;;;;;;11.57;100.00;99045.09;5024819;28;20411;-89
2023/03/17 09:10:53;;;;;;;4.72;1.35;;;;;;;11.46;100.00;99046.78;5037467;28;20057;-88
2023/03/17 09:13:21;;;;;;;3.17;1.20;;;;;;;11.37;100.00;99007.16;5025145;28;20054;-89
2023/03/17 09:15:48;;;;;;;3.08;1.00;;;;;;;11.71;100.00;99035.44;5017537;28;20053;-89
2023/03/17 09:18:18;;;;;;;1.48;0.90;;;;;;;11.55;100.00;99002.41;5044051;28;20402;-89
2023/03/17 09:20:47;;;;;;;3.35;1.00;;;;;;;11.88;100.00;99040.34;5037597;28;20045;-89
2023/03/17 09:23:15;;;;;;;3.13;1.10;;;;;;;11.58;100.00;98996.16;5016696;28;20637;-87
2023/03/17 09:25:42;;;;;;;2.55;1.20;;;;;;;11.72;100.00;99022.22;5047287;28;20045;-85
2023/03/17 09:28:11;;;;;;;1.95;0.90;;;;;;;11.68;100.00;99043.50;5045380;28;20041;-86
2023/03/17 09:30:44;;;;;;;3.53;1.10;;;;;;;11.75;100.00;99039.53;5043060;28;20053;-87
2023/03/17 09:33:12;;;;;;;2.42;1.02;;;;;;;12.11;100.00;99078.13;5030860;28;20045;-87
2023/03/17 09:35:40;;;;;;;2.10;1.10;;;;;;;11.90;100.00;99056.00;5033126;28;20050;-88
2023/03/17 09:38:07;;;;;;;2.28;1.00;;;;;;;11.95;100.00;99046.88;5020121;28;20045;-87
2023/03/17 09:40:46;;;;;;;2.58;1.08;;;;;;;11.75;100.00;99024.63;5043433;28;20044;-88
2023/03/17 09:43:28;;;;;;;2.72;1.00;;;;;;;12.27;100.00;99087.50;5053344;28;20049;-88
2023/03/17 09:45:55;;;;;;;2.42;0.90;;;;;;;11.97;100.00;99041.53;5047558;28;20050;-86
2023/03/17 09:48:35;;;;;;;1.60;0.82;;;;;;;12.21;100.00;99061.72;5032817;28;20703;-86
2023/03/17 09:51:12;;;;;;;2.53;1.00;;;;;;;12.36;100.00;99089.50;5030316;28;20451;-86
2023/03/17 09:54:01;;;;;;;1.73;0.80;;;;;;;12.27;100.00;99088.38;5031081;28;20049;-88
2023/03/17 09:56:32;;;;;;;1.73;0.90;;;;;;;12.46;100.00;99087.03;5048528;28;20068;-86
2023/03/17 09:59:05;;;;;;;2.65;0.90;;;;;;;12.28;100.00;99027.03;5033707;28;20797;-86
2023/03/17 10:01:32;;;;;;;4.00;1.10;;;;;;;12.40;100.00;99051.59;5053434;28;20049;-87
2023/03/17 10:04:01;;;;;;;4.10;1.40;;;;;;;12.58;100.00;99078.28;5048189;28;20132;-86
2023/03/17 10:06:36;;;;;;;3.45;1.10;;;;;;;12.52;100.00;99066.44;5051861;28;20049;-87
2023/03/17 10:09:07;;;;;;;4.00;1.00;;;;;;;13.03;100.00;99099.53;5052030;28;20057;-85
2023/03/17 10:11:45;;;;;;;3.13;0.95;;;;;;;13.05;100.00;99107.28;5053495;28;20065;-86
2023/03/17 10:14:22;;;;;;;2.67;1.00;;;;;;;13.18;100.00;99108.06;5044704;28;20049;-86
2023/03/17 10:17:01;;;;;;;0.75;0.70;;;;;;;13.28;100.00;99105.59;5033656;28;20403;-86
2023/03/17 10:19:28;;;;;;;2.15;1.00;;;;;;;13.18;100.00;99108.06;5038630;28;20063;-86
2023/03/17 10:22:00;;;;;;;3.58;1.00;;;;;;;13.12;100.00;99100.63;5036093;28;20045;-86
2023/03/17 10:24:31;;;;;;;2.42;1.10;;;;;;;13.10;100.00;99116.50;5035297;28;20052;-86
2023/03/17 10:27:03;;;;;;;3.00;1.15;;;;;;;13.41;100.00;99105.53;5042875;28;20058;-86
2023/03/17 10:29:31;;;;;;;3.03;1.15;;;;;;;13.18;100.00;99080.94;5026278;28;20471;-84
2023/03/17 10:31:58;;;;;;;4.32;1.27;;;;;;;13.14;100.00;99061.94;5052309;28;20647;-85
2023/03/17 10:34:28;;;;;;;3.42;1.13;;;;;;;13.54;100.00;99121.22;5042847;28;20087;-85
2023/03/17 10:37:05;;;;;;;2.17;0.88;;;;;;;13.59;100.00;99090.16;5034885;28;20407;-85
2023/03/17 10:39:44;;;;;;;2.50;1.02;;;;;;;13.48;100.00;99080.44;5033296;28;20479;-85
2023/03/17 10:42:20;;;;;;;4.53;0.80;;;;;;;13.56;100.00;99099.09;5052238;28;20049;-85
2023/03/17 10:44:49;;;;;;;3.35;1.00;;;;;;;13.82;100.00;99112.06;5052066;28;20049;-84
2023/03/17 10:47:38;;;;;;;2.55;0.90;;;;;;;13.86;100.00;99109.09;5034542;28;20060;-85
2023/03/17 10:50:14;;;;;;;3.38;0.90;;;;;;;13.85;100.00;99107.41;5040702;28;20497;-84
2023/03/17 10:52:42;;;;;;;3.72;1.08;;;;;;;14.00;100.00;99101.91;5052027;28;20052;-85
2023/03/17 10:55:13;;;;;;;1.52;0.70;;;;;;;14.11;100.00;99135.28;5034346;28;20048;-85
2023/03/17 10:58:08;;;;;;;2.38;0.80;;;;;;;14.07;100.00;99074.13;5033693;28;20446;-85
2023/03/17 11:00:37;;;;;;;1.67;0.70;;;;;;;14.59;100.00;99106.06;5003133;28;20052;-85
2023/03/17 11:03:28;;;;;;;1.60;1.00;;;;;;;14.67;100.00;99114.19;5037860;28;20041;-85
2023/03/17 11:06:00;;;;;;;2.08;0.88;;;;;;;14.59;100.00;99106.06;5027455;28;20498;-85
2023/03/17 11:08:34;;;;;;;0.93;0.70;;;;;;;14.59;100.00;99124.50;5050835;28;20414;-86
2023/03/17 11:11:06;;;;;;;1.88;0.80;;;;;;;14.55;100.00;99150.19;5033549;28;20053;-85
2023/03/17 11:13:33;;;;;;;1.25;0.75;;;;;;;14.47;100.00;99146.53;5025321;28;20076;-85
2023/03/17 11:16:20;;;;;;;1.95;0.90;;;;;;;14.65;100.00;99155.63;5051178;28;20053;-85
2023/03/17 11:18:51;;;;;;;1.13;0.80;;;;;;;14.51;100.00;99156.69;5032003;28;20059;-85
2023/03/17 11:21:29;;;;;;;1.33;0.80;;;;;;;14.08;100.00;99114.44;5050276;28;20049;-85
2023/03/17 11:24:44;;;;;;;2.08;0.82;;;;;;;14.44;100.00;99171.28;5034116;28;20049;-86
2023/03/17 11:27:22;;;;;;;2.35;0.90;;;;;;;14.54;100.00;99176.69;5043683;28;20045;-85
2023/03/17 11:30:24;;;;;;;3.15;1.00;;;;;;;14.39;100.00;99176.06;5026486;28;20492;-85
2023/03/17 11:33:12;;;;;;;2.47;0.90;;;;;;;14.35;100.00;99180.75;5033201;28;20100;-85
2023/03/17 11:35:56;;;;;;;1.75;0.80;;;;;;;14.04;100.00;99137.53;5025521;28;20053;-85
2023/03/17 11:38:27;;;;;;;2.13;0.80;;;;;;;14.36;100.00;99166.63;5047904;28;20087;-86